createdAt,value
2018-01-31T01:52:42.339Z,7.71
2018-01-31T01:53:43.134Z,7.72
2018-01-31T01:54:42.671Z,7.74
2018-01-31T01:55:41.488Z,7.74
2018-01-31T01:56:42.211Z,7.73
2018-01-31T01:57:41.295Z,7.73
2018-01-31T01:58:41.812Z,7.71
2018-01-31T01:59:41.986Z,7.71
2018-01-31T02:00:43.498Z,7.7
2018-01-31T02:01:41.335Z,7.7
2018-01-31T02:02:42.224Z,7.69
2018-01-31T02:03:42.631Z,7.67
2018-01-31T02:04:41.133Z,7.65
2018-01-31T02:05:41.770Z,7.65
2018-01-31T02:06:41.687Z,7.64
2018-01-31T02:07:41.835Z,7.64
2018-01-31T02:08:42.784Z,7.65
2018-01-31T02:09:45.300Z,7.65
2018-01-31T02:10:41.212Z,7.65
2018-01-31T02:11:40.955Z,7.65
2018-01-31T02:12:41.390Z,7.64
2018-01-31T02:13:41.029Z,7.65
2018-01-31T02:14:42.347Z,7.65
2018-01-31T02:15:41.213Z,7.64
2018-01-31T02:16:40.917Z,7.64
2018-01-31T02:17:42.525Z,7.64
2018-01-31T02:18:45.397Z,7.65
2018-01-31T02:19:44.049Z,7.64
2018-01-31T02:20:41.740Z,7.63
2018-01-31T02:21:41.885Z,7.64
2018-01-31T02:22:42.115Z,7.62
2018-01-31T02:23:42.517Z,7.64
2018-01-31T02:24:40.649Z,7.63
2018-01-31T02:25:42.863Z,7.64
2018-01-31T02:26:42.419Z,7.63
2018-01-31T02:27:43.677Z,7.64
2018-01-31T02:28:41.527Z,7.65
2018-01-31T02:29:42.032Z,7.64
2018-01-31T02:30:41.534Z,7.65
2018-01-31T02:31:42.887Z,7.65
2018-01-31T02:32:40.855Z,7.64
2018-01-31T02:33:41.187Z,7.66
2018-01-31T02:34:41.336Z,7.64
2018-01-31T02:35:41.243Z,7.65
2018-01-31T02:36:41.654Z,7.65
2018-01-31T02:37:42.048Z,7.67
2018-01-31T02:38:41.011Z,7.67
2018-01-31T02:39:41.575Z,7.66
2018-01-31T02:40:41.520Z,7.66
2018-01-31T02:41:42.409Z,7.68
2018-01-31T02:42:43.156Z,7.67
2018-01-31T02:43:41.966Z,7.68
2018-01-31T02:44:41.824Z,7.67
2018-01-31T02:45:41.737Z,7.68
2018-01-31T02:46:41.294Z,7.65
2018-01-31T02:47:41.077Z,7.64
2018-01-31T02:48:40.773Z,7.64
2018-01-31T02:49:42.356Z,7.64
2018-01-31T02:50:41.013Z,7.65
2018-01-31T02:51:41.494Z,7.65
2018-01-31T02:52:41.382Z,7.65
2018-01-31T02:53:43.352Z,7.65
2018-01-31T02:54:43.225Z,7.65
2018-01-31T02:55:41.070Z,7.64
2018-01-31T02:56:40.981Z,7.65
2018-01-31T02:57:41.340Z,7.64
2018-01-31T02:58:41.694Z,7.63
2018-01-31T02:59:42.362Z,7.63
2018-01-31T03:00:41.622Z,7.61
2018-01-31T03:01:41.776Z,7.64
2018-01-31T03:02:43.823Z,7.63
2018-01-31T03:03:43.889Z,7.64
2018-01-31T03:04:41.895Z,7.63
2018-01-31T03:05:41.557Z,7.63
2018-01-31T03:06:41.522Z,7.63
2018-01-31T03:07:42.475Z,7.63
2018-01-31T03:08:41.036Z,7.6
2018-01-31T03:09:42.309Z,7.59
2018-01-31T03:10:42.329Z,7.63
2018-01-31T03:11:41.619Z,7.62
2018-01-31T03:12:41.871Z,7.62
2018-01-31T03:13:42.403Z,7.62
2018-01-31T03:14:43.148Z,7.6
2018-01-31T03:15:42.826Z,7.62
2018-01-31T03:16:43.767Z,7.59
2018-01-31T03:17:42.585Z,7.58
2018-01-31T03:18:41.193Z,7.6
2018-01-31T03:19:42.419Z,7.6
2018-01-31T03:20:41.210Z,7.6
2018-01-31T03:21:41.732Z,7.59
2018-01-31T03:22:42.078Z,7.61
2018-01-31T03:23:41.459Z,7.6
2018-01-31T03:24:42.090Z,7.59
2018-01-31T03:25:41.317Z,7.59
2018-01-31T03:26:41.315Z,7.59
2018-01-31T03:27:41.039Z,7.58
2018-01-31T03:28:42.080Z,7.59
2018-01-31T03:29:40.987Z,7.6
2018-01-31T03:30:42.003Z,7.59
2018-01-31T03:31:44.451Z,7.59
2018-01-31T03:32:42.604Z,7.63
2018-01-31T03:33:41.245Z,7.63
2018-01-31T03:34:42.027Z,7.6
2018-01-31T03:35:41.681Z,7.62
2018-01-31T03:36:42.878Z,7.6
2018-01-31T03:37:41.683Z,7.63
2018-01-31T03:38:47.491Z,7.62
2018-01-31T03:39:41.605Z,7.6
2018-01-31T03:40:43.064Z,7.62
2018-01-31T03:41:41.558Z,7.63
2018-01-31T03:42:40.990Z,7.63
2018-01-31T03:43:40.986Z,7.61
2018-01-31T03:44:41.708Z,7.62
2018-01-31T03:45:41.590Z,7.61
2018-01-31T03:46:42.575Z,7.62
2018-01-31T03:47:41.331Z,7.62
2018-01-31T03:48:42.169Z,7.61
2018-01-31T03:49:42.266Z,7.62
2018-01-31T03:50:40.896Z,7.62
2018-01-31T03:51:41.155Z,7.6
2018-01-31T03:52:41.308Z,7.62
2018-01-31T03:53:41.059Z,7.6
2018-01-31T03:54:41.650Z,7.62
2018-01-31T03:55:41.793Z,7.6
2018-01-31T03:56:41.272Z,7.6
2018-01-31T03:57:42.163Z,7.6
2018-01-31T03:58:41.255Z,7.62
2018-01-31T03:59:40.582Z,7.6
2018-01-31T04:00:42.102Z,7.59
2018-01-31T04:01:41.939Z,7.61
2018-01-31T04:02:42.412Z,7.6
2018-01-31T04:03:43.098Z,7.61
2018-01-31T04:04:42.153Z,7.6
2018-01-31T04:05:42.654Z,7.63
2018-01-31T04:06:41.658Z,7.6
2018-01-31T04:07:41.688Z,7.6
2018-01-31T04:08:43.190Z,7.6
2018-01-31T04:09:42.495Z,7.59
2018-01-31T04:10:41.955Z,7.61
2018-01-31T04:11:43.100Z,7.6
2018-01-31T04:12:41.840Z,7.59
2018-01-31T04:13:42.292Z,7.6
2018-01-31T04:14:41.004Z,7.62
2018-01-31T04:15:41.579Z,7.62
2018-01-31T04:16:41.382Z,7.62
2018-01-31T04:17:42.614Z,7.6
2018-01-31T04:18:41.397Z,7.62
2018-01-31T04:19:40.852Z,7.62
2018-01-31T04:20:41.375Z,7.63
2018-01-31T04:21:41.065Z,7.63
2018-01-31T04:22:41.938Z,7.59
2018-01-31T04:23:41.430Z,7.6
2018-01-31T04:24:41.165Z,7.62
2018-01-31T04:25:42.482Z,7.63
2018-01-31T04:26:42.542Z,7.62
2018-01-31T04:27:41.265Z,7.62
2018-01-31T04:28:41.296Z,7.63
2018-01-31T04:29:43.301Z,7.62
2018-01-31T04:30:42.458Z,7.62
2018-01-31T04:31:42.406Z,7.6
2018-01-31T04:32:43.241Z,7.62
2018-01-31T04:33:41.944Z,7.62
2018-01-31T04:34:42.447Z,7.63
2018-01-31T04:35:40.954Z,7.62
2018-01-31T04:36:42.032Z,7.6
2018-01-31T04:37:41.573Z,7.63
2018-01-31T04:38:41.100Z,7.63
2018-01-31T04:39:40.877Z,7.62
2018-01-31T04:40:42.362Z,7.6
2018-01-31T04:41:41.576Z,7.62
2018-01-31T04:42:42.155Z,7.62
2018-01-31T04:43:42.709Z,7.63
2018-01-31T04:44:43.613Z,7.62
2018-01-31T04:45:43.816Z,7.6
2018-01-31T04:46:41.236Z,7.62
2018-01-31T04:47:42.668Z,7.63
2018-01-31T04:48:40.967Z,7.64
2018-01-31T04:49:41.132Z,7.64
2018-01-31T04:50:40.967Z,7.64
2018-01-31T04:51:40.658Z,7.66
2018-01-31T04:52:40.617Z,7.66
2018-01-31T04:53:40.545Z,7.68
2018-01-31T04:54:40.831Z,7.67
2018-01-31T04:55:40.843Z,7.68
2018-01-31T04:56:40.942Z,7.69
2018-01-31T04:57:40.881Z,7.71
2018-01-31T04:58:40.654Z,7.71
2018-01-31T04:59:40.841Z,7.71
2018-01-31T05:00:40.764Z,7.72
2018-01-31T05:01:40.978Z,7.72
2018-01-31T05:02:40.909Z,7.74
2018-01-31T05:03:40.622Z,7.76
2018-01-31T05:04:40.859Z,7.76
2018-01-31T05:05:41.033Z,7.76
2018-01-31T05:06:40.894Z,7.76
2018-01-31T05:07:40.674Z,7.77
2018-01-31T05:08:40.721Z,7.79
2018-01-31T05:09:41.023Z,7.81
2018-01-31T05:10:41.009Z,7.81
2018-01-31T05:11:40.615Z,7.81
2018-01-31T05:12:40.711Z,7.83
2018-01-31T05:13:40.742Z,7.84
2018-01-31T05:14:40.682Z,7.84
2018-01-31T05:15:40.872Z,7.84
2018-01-31T05:16:40.655Z,7.84
2018-01-31T05:17:40.996Z,7.84
2018-01-31T05:18:40.921Z,7.84
2018-01-31T05:19:40.900Z,7.86
2018-01-31T05:20:41.190Z,7.86
2018-01-31T05:21:40.779Z,7.87
2018-01-31T05:22:40.757Z,7.86
2018-01-31T05:23:41.450Z,7.85
2018-01-31T05:24:41.072Z,7.87
2018-01-31T05:25:40.786Z,7.88
2018-01-31T05:26:40.559Z,7.87
2018-01-31T05:27:40.964Z,7.89
2018-01-31T05:28:40.920Z,7.9
2018-01-31T05:29:40.887Z,7.89
2018-01-31T05:30:40.809Z,7.89
2018-01-31T05:31:40.877Z,7.91
2018-01-31T05:32:40.919Z,7.9
2018-01-31T05:33:40.988Z,7.92
2018-01-31T05:34:40.800Z,7.9
2018-01-31T05:35:40.954Z,7.92
2018-01-31T05:36:40.933Z,7.89
2018-01-31T05:37:41.058Z,7.89
2018-01-31T05:38:40.993Z,7.89
2018-01-31T05:39:41.099Z,7.9
2018-01-31T05:40:40.850Z,7.9
2018-01-31T05:41:40.850Z,7.9
2018-01-31T05:42:40.821Z,7.89
2018-01-31T05:43:41.022Z,7.91
2018-01-31T05:44:40.955Z,7.9
2018-01-31T05:45:40.848Z,7.9
2018-01-31T05:46:40.786Z,7.9
2018-01-31T05:47:40.599Z,7.9
2018-01-31T05:48:40.886Z,7.91
2018-01-31T05:49:40.633Z,7.92
2018-01-31T05:50:41.072Z,7.92
2018-01-31T05:51:40.653Z,7.93
2018-01-31T05:52:40.810Z,7.94
2018-01-31T05:53:40.952Z,7.93
2018-01-31T05:54:41.057Z,7.91
2018-01-31T05:55:40.944Z,7.92
2018-01-31T05:56:40.903Z,7.93
2018-01-31T05:57:40.660Z,7.93
2018-01-31T05:58:40.777Z,7.92
2018-01-31T05:59:40.963Z,7.93
2018-01-31T06:00:40.897Z,7.91
2018-01-31T06:01:40.956Z,7.91
2018-01-31T06:02:41.038Z,7.91
2018-01-31T06:03:40.896Z,7.94
2018-01-31T06:04:41.038Z,7.94
2018-01-31T06:05:40.840Z,7.91
2018-01-31T06:06:40.996Z,7.91
2018-01-31T06:07:41.002Z,7.91
2018-01-31T06:08:40.680Z,7.94
2018-01-31T06:09:41.200Z,7.94
2018-01-31T06:10:40.855Z,7.94
2018-01-31T06:11:40.932Z,7.94
2018-01-31T06:12:40.957Z,7.93
2018-01-31T06:13:41.010Z,7.94
2018-01-31T06:14:40.992Z,7.96
2018-01-31T06:15:40.792Z,7.95
2018-01-31T06:16:41.039Z,7.96
2018-01-31T06:17:41.069Z,7.95
2018-01-31T06:18:41.058Z,7.96
2018-01-31T06:19:40.684Z,7.98
2018-01-31T06:20:41.071Z,7.96
2018-01-31T06:21:40.861Z,7.97
2018-01-31T06:22:40.687Z,7.97
2018-01-31T06:23:40.794Z,7.97
2018-01-31T06:24:40.993Z,7.99
2018-01-31T06:25:40.896Z,7.98
2018-01-31T06:26:40.904Z,7.99
2018-01-31T06:27:40.685Z,7.99
2018-01-31T06:28:40.802Z,7.99
2018-01-31T06:29:41.022Z,7.96
2018-01-31T06:30:41.057Z,7.99
2018-01-31T06:31:40.670Z,7.99
2018-01-31T06:32:40.708Z,8
2018-01-31T06:33:40.864Z,8
2018-01-31T06:34:41.024Z,8
2018-01-31T06:35:40.926Z,7.99
2018-01-31T06:36:40.851Z,8
2018-01-31T06:37:40.904Z,8
2018-01-31T06:38:40.913Z,8
2018-01-31T06:39:41.084Z,8
2018-01-31T06:40:41.104Z,8.03
2018-01-31T06:41:41.669Z,8.01
2018-01-31T06:42:40.993Z,8.01
2018-01-31T06:43:41.097Z,8
2018-01-31T06:44:41.469Z,8
2018-01-31T06:45:41.120Z,8
2018-01-31T06:46:41.119Z,8.01
2018-01-31T06:47:40.948Z,8.01
2018-01-31T06:48:40.864Z,8.02
2018-01-31T06:49:40.997Z,8.02
2018-01-31T06:50:40.901Z,8.03
2018-01-31T06:51:40.831Z,8.02
2018-01-31T06:52:41.027Z,8.02
2018-01-31T06:53:40.794Z,8.05
2018-01-31T06:54:41.093Z,8.03
2018-01-31T06:55:40.787Z,8.05
2018-01-31T06:56:41.093Z,8.05
2018-01-31T06:57:40.745Z,8.05
2018-01-31T06:58:40.831Z,8.04
2018-01-31T06:59:40.940Z,8.05
2018-01-31T07:00:40.962Z,8.05
2018-01-31T07:01:40.782Z,8.04
2018-01-31T07:02:41.099Z,8.05
2018-01-31T07:03:40.876Z,8.06
2018-01-31T07:04:40.789Z,8.07
2018-01-31T07:05:41.217Z,8.08
2018-01-31T07:06:41.240Z,8.09
2018-01-31T07:07:41.716Z,8.09
2018-01-31T07:08:41.574Z,8.08
2018-01-31T07:09:41.589Z,8.1
2018-01-31T07:10:41.020Z,8.12
2018-01-31T07:11:40.978Z,8.13
2018-01-31T07:12:40.980Z,8.13
2018-01-31T07:13:41.415Z,8.15
2018-01-31T07:14:41.323Z,8.18
2018-01-31T07:15:41.054Z,8.17
2018-01-31T07:16:41.146Z,8.2
2018-01-31T07:17:41.142Z,8.21
2018-01-31T07:18:41.102Z,8.21
2018-01-31T07:19:41.215Z,8.21
2018-01-31T07:20:40.830Z,8.21
2018-01-31T07:21:41.031Z,8.24
2018-01-31T07:22:41.031Z,8.22
2018-01-31T07:23:40.755Z,8.23
2018-01-31T07:24:41.391Z,8.23
2018-01-31T07:25:40.821Z,8.25
2018-01-31T07:26:41.070Z,8.24
2018-01-31T07:27:41.496Z,8.24
2018-01-31T07:28:41.106Z,8.26
2018-01-31T07:29:41.543Z,8.26
2018-01-31T07:30:41.685Z,8.26
2018-01-31T07:31:40.704Z,8.27
2018-01-31T07:32:41.078Z,8.28
2018-01-31T07:33:41.027Z,8.27
2018-01-31T07:34:41.185Z,8.27
2018-01-31T07:35:41.021Z,8.29
2018-01-31T07:36:41.100Z,8.27
2018-01-31T07:37:40.988Z,8.29
2018-01-31T07:38:41.806Z,8.27
2018-01-31T07:39:40.855Z,8.3
2018-01-31T07:40:41.030Z,8.31
2018-01-31T07:41:41.128Z,8.31
2018-01-31T07:42:41.037Z,8.31
2018-01-31T07:43:41.257Z,8.31
2018-01-31T07:44:41.240Z,8.31
2018-01-31T07:45:40.939Z,8.32
2018-01-31T07:46:41.088Z,8.32
2018-01-31T07:47:41.240Z,8.33
2018-01-31T07:48:41.768Z,8.36
2018-01-31T07:49:41.101Z,8.36
2018-01-31T07:50:41.037Z,8.36
2018-01-31T07:51:41.046Z,8.37
2018-01-31T07:52:41.184Z,8.35
2018-01-31T07:53:41.022Z,8.38
2018-01-31T07:54:41.083Z,8.39
2018-01-31T07:55:41.084Z,8.38
2018-01-31T07:56:41.135Z,8.39
2018-01-31T07:57:40.947Z,8.4
2018-01-31T07:58:41.155Z,8.41
2018-01-31T07:59:41.296Z,8.43
2018-01-31T08:00:41.150Z,8.43
2018-01-31T08:01:42.141Z,8.42
2018-01-31T08:02:41.343Z,8.42
2018-01-31T08:03:41.205Z,8.41
2018-01-31T08:04:41.156Z,8.43
2018-01-31T08:05:41.138Z,8.42
2018-01-31T08:06:41.047Z,8.43
2018-01-31T08:07:41.040Z,8.44
2018-01-31T08:08:41.122Z,8.43
2018-01-31T08:09:40.913Z,8.46
2018-01-31T08:10:41.086Z,8.48
2018-01-31T08:11:41.173Z,8.47
2018-01-31T08:12:40.900Z,8.48
2018-01-31T08:13:41.277Z,8.5
2018-01-31T08:14:40.905Z,8.5
2018-01-31T08:15:40.014Z,8.5
2018-01-31T08:16:40.156Z,8.49
2018-01-31T08:17:40.266Z,8.48
2018-01-31T08:18:40.195Z,8.5
2018-01-31T08:19:40.378Z,8.5
2018-01-31T08:20:40.207Z,8.53
2018-01-31T08:21:40.067Z,8.51
2018-01-31T08:22:40.225Z,8.54
2018-01-31T08:23:40.205Z,8.53
2018-01-31T08:24:40.349Z,8.55
2018-01-31T08:25:40.052Z,8.56
2018-01-31T08:26:40.065Z,8.56
2018-01-31T08:27:40.930Z,8.57
2018-01-31T08:28:40.078Z,8.58
2018-01-31T08:29:40.202Z,8.59
2018-01-31T08:30:39.963Z,8.63
2018-01-31T08:31:40.306Z,8.63
2018-01-31T08:32:39.984Z,8.63
2018-01-31T08:33:40.251Z,8.63
2018-01-31T08:34:40.488Z,8.64
2018-01-31T08:35:40.108Z,8.64
2018-01-31T08:36:40.168Z,8.64
2018-01-31T08:37:40.019Z,8.66
2018-01-31T08:38:39.933Z,8.68
2018-01-31T08:39:40.509Z,8.68
2018-01-31T08:40:40.319Z,8.69
2018-01-31T08:41:40.152Z,8.69
2018-01-31T08:42:40.338Z,8.71
2018-01-31T08:43:40.333Z,8.72
2018-01-31T08:44:40.312Z,8.72
2018-01-31T08:45:40.676Z,8.74
2018-01-31T08:46:40.306Z,8.74
2018-01-31T08:47:40.405Z,8.71
2018-01-31T08:48:40.377Z,8.71
2018-01-31T08:49:40.382Z,8.72
2018-01-31T08:50:40.376Z,8.72
2018-01-31T08:51:40.467Z,8.72
2018-01-31T08:52:40.413Z,8.74
2018-01-31T08:53:40.652Z,8.72
2018-01-31T08:54:40.592Z,8.72
2018-01-31T08:55:40.539Z,8.75
2018-01-31T08:56:40.543Z,8.73
2018-01-31T08:57:40.927Z,8.78
2018-01-31T08:58:40.437Z,8.76
2018-01-31T08:59:40.438Z,8.77
2018-01-31T09:00:40.645Z,8.78
2018-01-31T09:01:40.490Z,8.8
2018-01-31T09:02:40.540Z,8.81
2018-01-31T09:03:40.559Z,8.82
2018-01-31T09:04:40.237Z,8.85
2018-01-31T09:05:40.331Z,8.88
2018-01-31T09:06:40.500Z,8.89
2018-01-31T09:07:40.630Z,8.9
2018-01-31T09:08:40.452Z,8.93
2018-01-31T09:09:40.231Z,8.96
2018-01-31T09:10:40.564Z,8.95
2018-01-31T09:11:40.323Z,9
2018-01-31T09:12:41.293Z,9.02
2018-01-31T09:13:40.510Z,9.03
2018-01-31T09:14:40.522Z,9.08
2018-01-31T09:15:40.634Z,9.09
2018-01-31T09:16:40.669Z,9.14
2018-01-31T09:17:40.568Z,9.16
2018-01-31T09:18:40.370Z,9.23
2018-01-31T09:19:40.598Z,9.28
2018-01-31T09:20:40.279Z,9.32
2018-01-31T09:21:40.918Z,9.32
2018-01-31T09:22:40.379Z,9.33
2018-01-31T09:23:40.471Z,9.34
2018-01-31T09:24:40.568Z,9.35
2018-01-31T09:25:40.655Z,9.35
2018-01-31T09:26:40.514Z,9.39
2018-01-31T09:27:40.658Z,9.43
2018-01-31T09:28:40.490Z,9.42
2018-01-31T09:29:40.564Z,9.46
2018-01-31T09:30:40.492Z,9.49
2018-01-31T09:31:40.601Z,9.51
2018-01-31T09:32:40.548Z,9.51
2018-01-31T09:33:40.371Z,9.51
2018-01-31T09:34:40.650Z,9.53
2018-01-31T09:35:40.554Z,9.52
2018-01-31T09:36:40.338Z,9.53
2018-01-31T09:37:40.755Z,9.52
2018-01-31T09:38:40.667Z,9.53
2018-01-31T09:39:40.400Z,9.52
2018-01-31T09:40:40.460Z,9.51
2018-01-31T09:41:40.630Z,9.51
2018-01-31T09:42:40.325Z,9.51
2018-01-31T09:43:40.508Z,9.52
2018-01-31T09:44:40.413Z,9.49
2018-01-31T09:45:40.841Z,9.48
2018-01-31T09:46:40.701Z,9.51
2018-01-31T09:47:40.601Z,9.51
2018-01-31T09:48:40.748Z,9.52
2018-01-31T09:49:40.614Z,9.52
2018-01-31T09:50:40.671Z,9.54
2018-01-31T09:51:40.276Z,9.56
2018-01-31T09:52:40.616Z,9.54
2018-01-31T09:53:40.373Z,9.53
2018-01-31T09:54:40.483Z,9.53
2018-01-31T09:55:40.870Z,9.56
2018-01-31T09:56:40.908Z,9.55
2018-01-31T09:57:40.688Z,9.54
2018-01-31T09:58:40.500Z,9.54
2018-01-31T09:59:41.497Z,9.56
2018-01-31T10:00:40.499Z,9.56
2018-01-31T10:01:40.898Z,9.55
2018-01-31T10:02:40.570Z,9.53
2018-01-31T10:03:40.458Z,9.53
2018-01-31T10:04:40.496Z,9.51
2018-01-31T10:05:40.400Z,9.5
2018-01-31T10:06:41.962Z,9.48
2018-01-31T10:07:40.377Z,9.5
2018-01-31T10:08:40.626Z,9.5
2018-01-31T10:09:40.555Z,9.47
2018-01-31T10:10:40.397Z,9.47
2018-01-31T10:11:40.668Z,9.45
2018-01-31T10:12:40.683Z,9.43
2018-01-31T10:13:40.681Z,9.45
2018-01-31T10:14:40.723Z,9.42
2018-01-31T10:15:40.676Z,9.42
2018-01-31T10:16:40.453Z,9.41
2018-01-31T10:17:40.334Z,9.41
2018-01-31T10:18:40.330Z,9.42
2018-01-31T10:19:40.887Z,9.42
2018-01-31T10:20:40.445Z,9.42
2018-01-31T10:21:40.590Z,9.42
2018-01-31T10:22:40.836Z,9.42
2018-01-31T10:23:40.887Z,9.42
2018-01-31T10:24:41.264Z,9.41
2018-01-31T10:25:40.492Z,9.42
2018-01-31T10:26:40.806Z,9.43
2018-01-31T10:27:40.882Z,9.45
2018-01-31T10:28:40.866Z,9.46
2018-01-31T10:29:40.913Z,9.46
2018-01-31T10:30:40.562Z,9.46
2018-01-31T10:31:40.649Z,9.46
2018-01-31T10:32:40.413Z,9.46
2018-01-31T10:33:40.478Z,9.45
2018-01-31T10:34:40.348Z,9.46
2018-01-31T10:35:40.432Z,9.45
2018-01-31T10:36:40.479Z,9.43
2018-01-31T10:37:40.785Z,9.46
2018-01-31T10:38:40.444Z,9.44
2018-01-31T10:39:40.781Z,9.43
2018-01-31T10:40:40.613Z,9.46
2018-01-31T10:41:40.694Z,9.45
2018-01-31T10:42:40.927Z,9.45
2018-01-31T10:43:40.975Z,9.43
2018-01-31T10:44:40.736Z,9.45
2018-01-31T10:45:40.721Z,9.44
2018-01-31T10:46:40.558Z,9.44
2018-01-31T10:47:40.553Z,9.42
2018-01-31T10:48:40.654Z,9.41
2018-01-31T10:49:40.714Z,9.4
2018-01-31T10:50:40.721Z,9.41
2018-01-31T10:51:40.512Z,9.39
2018-01-31T10:52:40.484Z,9.36
2018-01-31T10:57:40.743Z,9.26
2018-01-31T10:58:40.897Z,9.24
2018-01-31T10:59:40.987Z,9.22
2018-01-31T11:00:40.548Z,9.21
2018-01-31T11:01:40.664Z,9.2
2018-01-31T11:02:40.826Z,9.17
2018-01-31T11:03:40.706Z,9.15
2018-01-31T11:04:40.816Z,9.15
2018-01-31T11:05:40.779Z,9.15
2018-01-31T11:06:40.853Z,9.14
2018-01-31T11:07:40.847Z,9.14
2018-01-31T11:08:41.609Z,9.15
2018-01-31T11:09:40.862Z,9.14
2018-01-31T11:10:40.617Z,9.12
2018-01-31T11:11:40.994Z,9.14
2018-01-31T11:12:40.772Z,9.12
2018-01-31T11:13:40.894Z,9.13
2018-01-31T11:14:40.872Z,9.14
2018-01-31T11:15:41.209Z,9.11
2018-01-31T11:16:40.854Z,9.14
2018-01-31T11:17:41.149Z,9.12
2018-01-31T11:18:41.153Z,9.14
2018-01-31T11:19:40.951Z,9.13
2018-01-31T11:20:40.858Z,9.13
2018-01-31T11:21:40.826Z,9.14
2018-01-31T11:22:41.233Z,9.11
2018-01-31T11:23:40.817Z,9.14
2018-01-31T11:24:40.810Z,9.15
2018-01-31T11:25:41.910Z,9.15
2018-01-31T11:26:41.073Z,9.14
2018-01-31T11:27:41.199Z,9.15
2018-01-31T11:28:40.992Z,9.15
2018-01-31T11:29:41.398Z,9.16
2018-01-31T11:30:41.224Z,9.17
2018-01-31T11:31:41.116Z,9.21
2018-01-31T11:32:41.184Z,9.21
2018-01-31T11:33:41.001Z,9.23
2018-01-31T11:34:41.212Z,9.25
2018-01-31T11:35:40.953Z,9.27
2018-01-31T11:36:41.227Z,9.28
2018-01-31T11:37:40.867Z,9.31
2018-01-31T11:38:41.173Z,9.33
2018-01-31T11:39:41.027Z,9.35
2018-01-31T11:40:41.124Z,9.35
2018-01-31T11:41:41.056Z,9.37
2018-01-31T11:42:40.036Z,9.39
2018-01-31T11:43:41.145Z,9.4
2018-01-31T11:44:41.154Z,9.41
2018-01-31T11:45:41.128Z,9.45
2018-01-31T11:46:40.909Z,9.45
2018-01-31T11:47:41.176Z,9.47
2018-01-31T11:48:41.145Z,9.52
2018-01-31T11:49:40.996Z,9.54
2018-01-31T11:50:40.897Z,9.54
2018-01-31T11:51:41.034Z,9.58
2018-01-31T11:52:41.324Z,9.6
2018-01-31T11:53:40.988Z,9.63
2018-01-31T11:54:41.315Z,9.66
2018-01-31T11:55:41.013Z,9.71
2018-01-31T11:56:41.208Z,9.77
2018-01-31T11:57:41.397Z,9.83
2018-01-31T11:58:41.248Z,9.9
2018-01-31T11:59:42.967Z,9.95
2018-01-31T12:00:41.094Z,10.02
2018-01-31T12:01:40.794Z,10.06
2018-01-31T12:02:40.858Z,10.09
2018-01-31T12:03:40.959Z,10.14
2018-01-31T12:04:41.125Z,10.15
2018-01-31T12:05:40.892Z,10.14
2018-01-31T12:06:40.781Z,10.16
2018-01-31T12:07:40.846Z,10.22
2018-01-31T12:08:41.115Z,10.21
2018-01-31T12:09:41.112Z,10.21
2018-01-31T12:10:40.960Z,10.19
2018-01-31T12:11:40.920Z,10.2
2018-01-31T12:12:41.222Z,10.14
2018-01-31T12:13:41.168Z,10.12
2018-01-31T12:14:41.022Z,10.12
2018-01-31T12:15:41.290Z,10.1
2018-01-31T12:16:40.923Z,10.08
2018-01-31T12:17:40.346Z,10.08
2018-01-31T12:18:40.270Z,10.09
2018-01-31T12:19:40.291Z,10.08
2018-01-31T12:20:40.216Z,10.06
2018-01-31T12:21:40.087Z,10.02
2018-01-31T12:22:40.028Z,10.01
2018-01-31T12:23:40.236Z,9.98
2018-01-31T12:24:40.484Z,9.97
2018-01-31T12:25:40.289Z,9.95
2018-01-31T12:26:40.318Z,9.95
2018-01-31T12:27:40.225Z,9.95
2018-01-31T12:28:40.435Z,9.95
2018-01-31T12:29:40.208Z,9.94
2018-01-31T12:30:40.243Z,9.9
2018-01-31T12:31:40.270Z,9.9
2018-01-31T12:32:40.994Z,9.9
2018-01-31T12:33:40.022Z,9.9
2018-01-31T12:34:40.302Z,9.89
2018-01-31T12:35:40.297Z,9.88
2018-01-31T12:36:39.978Z,9.83
2018-01-31T12:37:40.198Z,9.82
2018-01-31T12:38:40.372Z,9.83
2018-01-31T12:39:40.511Z,9.78
2018-01-31T12:40:40.147Z,9.76
2018-01-31T12:41:40.235Z,9.73
2018-01-31T12:42:40.140Z,9.75
2018-01-31T12:43:40.281Z,9.73
2018-01-31T12:44:40.545Z,9.73
2018-01-31T12:45:40.055Z,9.76
2018-01-31T12:46:40.634Z,9.73
2018-01-31T12:47:40.465Z,9.76
2018-01-31T12:48:40.204Z,9.75
2018-01-31T12:49:40.026Z,9.78
2018-01-31T12:50:41.090Z,9.76
2018-01-31T12:51:40.377Z,9.73
2018-01-31T12:52:40.376Z,9.76
2018-01-31T12:53:40.522Z,9.76
2018-01-31T12:54:40.556Z,9.78
2018-01-31T12:55:40.317Z,9.77
2018-01-31T12:56:40.322Z,9.81
2018-01-31T12:57:40.389Z,9.78
2018-01-31T12:58:40.688Z,9.78
2018-01-31T12:59:40.435Z,9.79
2018-01-31T13:00:40.272Z,9.81
2018-01-31T13:01:40.558Z,9.79
2018-01-31T13:02:40.452Z,9.79
2018-01-31T13:03:40.500Z,9.79
2018-01-31T13:04:40.469Z,9.78
2018-01-31T13:05:40.594Z,9.77
2018-01-31T13:06:40.168Z,9.77
2018-01-31T13:07:40.143Z,9.77
2018-01-31T13:08:40.501Z,9.76
2018-01-31T13:09:40.253Z,9.76
2018-01-31T13:10:40.390Z,9.78
2018-01-31T13:11:40.183Z,9.78
2018-01-31T13:12:40.126Z,9.75
2018-01-31T13:13:40.182Z,9.78
2018-01-31T13:14:40.349Z,9.77
2018-01-31T13:15:40.188Z,9.79
2018-01-31T13:16:40.560Z,9.8
2018-01-31T13:17:40.793Z,9.82
2018-01-31T13:18:40.913Z,9.8
2018-01-31T13:19:41.227Z,9.79
2018-01-31T13:20:40.862Z,9.78
2018-01-31T13:21:40.793Z,9.78
2018-01-31T13:22:40.703Z,9.78
2018-01-31T13:23:40.648Z,9.77
2018-01-31T13:24:41.018Z,9.78
2018-01-31T13:25:41.928Z,9.76
2018-01-31T13:26:40.991Z,9.78
2018-01-31T13:27:40.945Z,9.78
2018-01-31T13:28:40.889Z,9.78
2018-01-31T13:29:40.674Z,9.77
2018-01-31T13:30:41.688Z,9.77
2018-01-31T13:31:40.801Z,9.78
2018-01-31T13:32:40.907Z,9.76
2018-01-31T13:33:40.935Z,9.75
2018-01-31T13:34:40.622Z,9.76
2018-01-31T13:35:40.737Z,9.73
2018-01-31T13:36:40.568Z,9.76
2018-01-31T13:37:40.840Z,9.73
2018-01-31T13:38:40.756Z,9.72
2018-01-31T13:39:40.561Z,9.76
2018-01-31T13:40:40.696Z,9.77
2018-01-31T13:41:40.789Z,9.77
2018-01-31T13:42:40.895Z,9.77
2018-01-31T13:43:40.971Z,9.77
2018-01-31T13:44:40.705Z,9.76
2018-01-31T13:45:40.717Z,9.76
2018-01-31T13:46:40.791Z,9.77
2018-01-31T13:47:40.945Z,9.76
2018-01-31T13:48:40.956Z,9.73
2018-01-31T13:49:40.914Z,9.75
2018-01-31T13:50:41.006Z,9.75
2018-01-31T13:51:40.917Z,9.74
2018-01-31T13:52:40.959Z,9.75
2018-01-31T13:53:40.861Z,9.73
2018-01-31T13:54:40.712Z,9.71
2018-01-31T13:55:41.170Z,9.71
2018-01-31T13:56:40.557Z,9.7
2018-01-31T13:57:41.042Z,9.71
2018-01-31T13:58:40.648Z,9.7
2018-01-31T13:59:40.894Z,9.72
2018-01-31T14:00:40.722Z,9.72
2018-01-31T14:01:40.805Z,9.73
2018-01-31T14:02:40.775Z,9.75
2018-01-31T14:03:40.758Z,9.72
2018-01-31T14:04:41.202Z,9.71
2018-01-31T14:05:40.886Z,9.71
2018-01-31T14:06:40.692Z,9.71
2018-01-31T14:07:40.733Z,9.72
2018-01-31T14:08:41.249Z,9.72
2018-01-31T14:09:40.519Z,9.74
2018-01-31T14:10:40.650Z,9.74
2018-01-31T14:11:40.945Z,9.75
2018-01-31T14:12:40.939Z,9.73
2018-01-31T14:13:40.649Z,9.76
2018-01-31T14:14:41.329Z,9.76
2018-01-31T14:15:40.908Z,9.75
2018-01-31T14:16:40.929Z,9.75
2018-01-31T14:17:41.017Z,9.74
2018-01-31T14:18:40.826Z,9.73
2018-01-31T14:19:41.090Z,9.73
2018-01-31T14:20:43.282Z,9.73
2018-01-31T14:21:44.012Z,9.72
2018-01-31T14:22:43.171Z,9.73
2018-01-31T14:23:44.553Z,9.72
2018-01-31T14:24:55.668Z,9.72
2018-01-31T14:25:51.540Z,9.72
2018-01-31T14:26:44.534Z,9.72
2018-01-31T14:27:40.643Z,9.71
2018-01-31T14:28:40.641Z,9.72
2018-01-31T14:29:40.895Z,9.72
2018-01-31T14:30:40.897Z,9.73
2018-01-31T14:31:41.126Z,9.72
2018-01-31T14:32:40.942Z,9.71
2018-01-31T14:33:40.878Z,9.71
2018-01-31T14:34:40.932Z,9.71
2018-01-31T14:35:41.048Z,9.7
2018-01-31T14:36:41.490Z,9.71
2018-01-31T14:37:44.171Z,9.7
2018-01-31T14:38:40.876Z,9.71
2018-01-31T14:39:41.037Z,9.7
2018-01-31T14:40:40.964Z,9.7
2018-01-31T14:41:41.011Z,9.71
2018-01-31T14:42:40.745Z,9.7
2018-01-31T14:43:40.795Z,9.68
2018-01-31T14:44:40.741Z,9.7
2018-01-31T14:45:40.838Z,9.68
2018-01-31T14:46:42.189Z,9.71
2018-01-31T14:47:41.421Z,9.71
2018-01-31T14:48:40.937Z,9.7
2018-01-31T14:49:41.692Z,9.71
2018-01-31T14:50:41.141Z,9.7
2018-01-31T14:51:41.130Z,9.7
2018-01-31T14:52:40.845Z,9.71
2018-01-31T14:53:41.246Z,9.7
2018-01-31T14:54:41.054Z,9.71
2018-01-31T14:55:41.321Z,9.71
2018-01-31T14:56:41.255Z,9.71
2018-01-31T14:57:41.161Z,9.7
2018-01-31T14:58:41.256Z,9.71
2018-01-31T14:59:40.894Z,9.71
2018-01-31T15:00:41.199Z,9.71
2018-01-31T15:01:41.149Z,9.71
2018-01-31T15:02:41.006Z,9.7
2018-01-31T15:03:40.884Z,9.71
2018-01-31T15:04:41.431Z,9.71
2018-01-31T15:05:41.239Z,9.7
2018-01-31T15:06:41.264Z,9.7
2018-01-31T15:07:40.996Z,9.71
2018-01-31T15:08:42.174Z,9.69
2018-01-31T15:09:41.039Z,9.69
2018-01-31T15:10:41.019Z,9.68
2018-01-31T15:11:41.603Z,9.66
2018-01-31T15:12:41.114Z,9.68
2018-01-31T15:13:41.002Z,9.66
2018-01-31T15:14:40.968Z,9.66
2018-01-31T15:15:41.187Z,9.65
2018-01-31T15:16:41.178Z,9.64
2018-01-31T15:17:40.483Z,9.65